sensor_id;sensor_type;location;lat;lon;timestamp;P1;durP1;ratioP1;P2;durP2;ratioP2
76136;SDS011;68622;53.128;17.966;2024-03-06T00:02:26;37.60;;;17.40;;
76136;SDS011;68622;53.128;17.966;2024-03-06T00:04:52;34.40;;;16.10;;
76136;SDS011;68622;53.128;17.966;2024-03-06T00:07:20;31.50;;;14.70;;
76136;SDS011;68622;53.128;17.966;2024-03-06T00:09:47;30.40;;;14.40;;
76136;SDS011;68622;53.128;17.966;2024-03-06T00:12:14;30.80;;;15.00;;
76136;SDS011;68622;53.128;17.966;2024-03-06T00:14:40;30.20;;;15.00;;
76136;SDS011;68622;53.128;17.966;2024-03-06T00:17:07;29.90;;;14.40;;
76136;SDS011;68622;53.128;17.966;2024-03-06T00:19:35;34.50;;;15.80;;
76136;SDS011;68622;53.128;17.966;2024-03-06T00:22:03;32.50;;;14.50;;
76136;SDS011;68622;53.128;17.966;2024-03-06T00:24:30;31.40;;;14.20;;
76136;SDS011;68622;53.128;17.966;2024-03-06T00:26:56;26.70;;;14.20;;
76136;SDS011;68622;53.128;17.966;2024-03-06T00:29:23;27.80;;;13.70;;
76136;SDS011;68622;53.128;17.966;2024-03-06T00:31:49;28.60;;;14.00;;
76136;SDS011;68622;53.128;17.966;2024-03-06T00:34:16;27.40;;;13.60;;
76136;SDS011;68622;53.128;17.966;2024-03-06T00:36:43;30.00;;;14.30;;
76136;SDS011;68622;53.128;17.966;2024-03-06T00:39:10;31.80;;;15.30;;
76136;SDS011;68622;53.128;17.966;2024-03-06T00:41:37;27.90;;;13.80;;
76136;SDS011;68622;53.128;17.966;2024-03-06T00:44:05;27.10;;;13.80;;
76136;SDS011;68622;53.128;17.966;2024-03-06T00:46:32;28.70;;;13.00;;
76136;SDS011;68622;53.128;17.966;2024-03-06T00:48:58;31.50;;;14.70;;
76136;SDS011;68622;53.128;17.966;2024-03-06T00:51:25;31.00;;;15.40;;
76136;SDS011;68622;53.128;17.966;2024-03-06T00:53:52;33.50;;;15.10;;
76136;SDS011;68622;53.128;17.966;2024-03-06T00:56:18;30.00;;;14.70;;
76136;SDS011;68622;53.128;17.966;2024-03-06T00:58:45;29.70;;;13.80;;
76136;SDS011;68622;53.128;17.966;2024-03-06T01:01:11;29.00;;;13.80;;
76136;SDS011;68622;53.128;17.966;2024-03-06T01:03:38;25.10;;;13.60;;
76136;SDS011;68622;53.128;17.966;2024-03-06T01:06:05;27.00;;;13.70;;
76136;SDS011;68622;53.128;17.966;2024-03-06T01:08:32;29.20;;;13.90;;
76136;SDS011;68622;53.128;17.966;2024-03-06T01:10:59;29.60;;;15.00;;
76136;SDS011;68622;53.128;17.966;2024-03-06T01:13:26;28.90;;;14.70;;
76136;SDS011;68622;53.128;17.966;2024-03-06T01:15:52;31.40;;;14.80;;
76136;SDS011;68622;53.128;17.966;2024-03-06T01:18:19;29.50;;;14.40;;
76136;SDS011;68622;53.128;17.966;2024-03-06T01:20:45;30.20;;;14.40;;
76136;SDS011;68622;53.128;17.966;2024-03-06T01:23:12;29.90;;;14.30;;
76136;SDS011;68622;53.128;17.966;2024-03-06T01:25:39;28.40;;;14.00;;
76136;SDS011;68622;53.128;17.966;2024-03-06T01:28:05;28.00;;;14.70;;
76136;SDS011;68622;53.128;17.966;2024-03-06T01:30:32;29.80;;;14.80;;
76136;SDS011;68622;53.128;17.966;2024-03-06T01:32:59;30.20;;;14.50;;
76136;SDS011;68622;53.128;17.966;2024-03-06T01:35:25;28.20;;;14.20;;
76136;SDS011;68622;53.128;17.966;2024-03-06T01:37:52;28.80;;;14.60;;
76136;SDS011;68622;53.128;17.966;2024-03-06T01:40:18;30.50;;;14.60;;
76136;SDS011;68622;53.128;17.966;2024-03-06T01:42:46;28.20;;;14.00;;
76136;SDS011;68622;53.128;17.966;2024-03-06T01:45:14;29.10;;;13.80;;
76136;SDS011;68622;53.128;17.966;2024-03-06T01:47:41;30.70;;;14.30;;
76136;SDS011;68622;53.128;17.966;2024-03-06T01:50:08;29.50;;;14.00;;
76136;SDS011;68622;53.128;17.966;2024-03-06T01:52:36;28.60;;;14.00;;
76136;SDS011;68622;53.128;17.966;2024-03-06T01:55:05;28.00;;;13.70;;
76136;SDS011;68622;53.128;17.966;2024-03-06T01:57:33;26.60;;;14.10;;
76136;SDS011;68622;53.128;17.966;2024-03-06T02:00:01;27.20;;;13.70;;
76136;SDS011;68622;53.128;17.966;2024-03-06T02:02:31;28.40;;;13.20;;
76136;SDS011;68622;53.128;17.966;2024-03-06T02:04:58;31.90;;;15.60;;
76136;SDS011;68622;53.128;17.966;2024-03-06T02:07:26;27.90;;;14.50;;
76136;SDS011;68622;53.128;17.966;2024-03-06T02:09:58;25.50;;;14.70;;
76136;SDS011;68622;53.128;17.966;2024-03-06T02:12:25;28.90;;;14.20;;
76136;SDS011;68622;53.128;17.966;2024-03-06T02:14:52;28.10;;;14.80;;
76136;SDS011;68622;53.128;17.966;2024-03-06T02:17:18;29.40;;;14.50;;
76136;SDS011;68622;53.128;17.966;2024-03-06T02:19:45;32.50;;;15.60;;
76136;SDS011;68622;53.128;17.966;2024-03-06T02:22:12;30.40;;;14.00;;
76136;SDS011;68622;53.128;17.966;2024-03-06T02:24:43;29.30;;;14.20;;
76136;SDS011;68622;53.128;17.966;2024-03-06T02:27:11;27.30;;;13.70;;
76136;SDS011;68622;53.128;17.966;2024-03-06T02:29:38;28.90;;;14.80;;
76136;SDS011;68622;53.128;17.966;2024-03-06T02:32:04;28.60;;;14.30;;
76136;SDS011;68622;53.128;17.966;2024-03-06T02:34:32;25.80;;;14.50;;
76136;SDS011;68622;53.128;17.966;2024-03-06T02:36:58;33.50;;;16.40;;
76136;SDS011;68622;53.128;17.966;2024-03-06T02:39:25;27.20;;;14.40;;
76136;SDS011;68622;53.128;17.966;2024-03-06T02:41:52;28.70;;;15.30;;
76136;SDS011;68622;53.128;17.966;2024-03-06T02:44:18;29.30;;;14.20;;
76136;SDS011;68622;53.128;17.966;2024-03-06T02:46:48;28.20;;;14.00;;
76136;SDS011;68622;53.128;17.966;2024-03-06T02:49:15;30.10;;;15.10;;
76136;SDS011;68622;53.128;17.966;2024-03-06T02:51:42;28.30;;;14.00;;
76136;SDS011;68622;53.128;17.966;2024-03-06T02:54:09;36.00;;;16.70;;
76136;SDS011;68622;53.128;17.966;2024-03-06T02:56:36;30.30;;;15.50;;
76136;SDS011;68622;53.128;17.966;2024-03-06T02:59:03;27.40;;;14.10;;
76136;SDS011;68622;53.128;17.966;2024-03-06T03:01:30;28.50;;;14.80;;
76136;SDS011;68622;53.128;17.966;2024-03-06T03:03:57;28.40;;;15.50;;
76136;SDS011;68622;53.128;17.966;2024-03-06T03:06:23;33.90;;;15.30;;
76136;SDS011;68622;53.128;17.966;2024-03-06T03:08:50;29.80;;;14.90;;
76136;SDS011;68622;53.128;17.966;2024-03-06T03:11:17;33.00;;;15.20;;
76136;SDS011;68622;53.128;17.966;2024-03-06T03:13:44;30.40;;;15.80;;
76136;SDS011;68622;53.128;17.966;2024-03-06T03:16:17;33.10;;;16.00;;
76136;SDS011;68622;53.128;17.966;2024-03-06T03:18:44;33.40;;;16.40;;
76136;SDS011;68622;53.128;17.966;2024-03-06T03:21:11;33.20;;;15.60;;
76136;SDS011;68622;53.128;17.966;2024-03-06T03:23:39;31.60;;;16.00;;
76136;SDS011;68622;53.128;17.966;2024-03-06T03:26:07;32.80;;;16.40;;
76136;SDS011;68622;53.128;17.966;2024-03-06T03:28:39;35.30;;;16.00;;
76136;SDS011;68622;53.128;17.966;2024-03-06T03:31:06;35.00;;;16.00;;
76136;SDS011;68622;53.128;17.966;2024-03-06T03:33:35;31.20;;;14.70;;
76136;SDS011;68622;53.128;17.966;2024-03-06T03:36:05;34.40;;;16.30;;
76136;SDS011;68622;53.128;17.966;2024-03-06T03:38:36;31.80;;;15.90;;
76136;SDS011;68622;53.128;17.966;2024-03-06T03:41:12;36.70;;;15.60;;
76136;SDS011;68622;53.128;17.966;2024-03-06T03:43:39;37.70;;;16.90;;
76136;SDS011;68622;53.128;17.966;2024-03-06T03:46:06;35.70;;;17.10;;
76136;SDS011;68622;53.128;17.966;2024-03-06T03:48:33;34.20;;;16.30;;
76136;SDS011;68622;53.128;17.966;2024-03-06T03:51:02;36.00;;;16.70;;
76136;SDS011;68622;53.128;17.966;2024-03-06T03:53:33;43.00;;;19.70;;
76136;SDS011;68622;53.128;17.966;2024-03-06T03:56:00;39.60;;;18.90;;
76136;SDS011;68622;53.128;17.966;2024-03-06T03:58:27;39.20;;;18.50;;
76136;SDS011;68622;53.128;17.966;2024-03-06T04:00:54;38.40;;;18.10;;
76136;SDS011;68622;53.128;17.966;2024-03-06T04:03:22;37.20;;;17.00;;
76136;SDS011;68622;53.128;17.966;2024-03-06T04:05:49;40.40;;;19.10;;
76136;SDS011;68622;53.128;17.966;2024-03-06T04:08:16;40.50;;;19.30;;
76136;SDS011;68622;53.128;17.966;2024-03-06T04:10:43;42.40;;;20.00;;
76136;SDS011;68622;53.128;17.966;2024-03-06T04:13:14;42.80;;;20.00;;
76136;SDS011;68622;53.128;17.966;2024-03-06T04:15:42;45.80;;;20.20;;
76136;SDS011;68622;53.128;17.966;2024-03-06T04:18:09;44.30;;;19.10;;
76136;SDS011;68622;53.128;17.966;2024-03-06T04:20:35;42.60;;;20.00;;
76136;SDS011;68622;53.128;17.966;2024-03-06T04:23:02;38.30;;;18.40;;
76136;SDS011;68622;53.128;17.966;2024-03-06T04:25:29;40.90;;;18.40;;
76136;SDS011;68622;53.128;17.966;2024-03-06T04:27:55;43.60;;;20.30;;
76136;SDS011;68622;53.128;17.966;2024-03-06T04:30:22;41.50;;;18.60;;
76136;SDS011;68622;53.128;17.966;2024-03-06T04:32:49;42.90;;;19.40;;
76136;SDS011;68622;53.128;17.966;2024-03-06T04:35:16;43.20;;;20.50;;
76136;SDS011;68622;53.128;17.966;2024-03-06T04:37:42;37.90;;;18.40;;
76136;SDS011;68622;53.128;17.966;2024-03-06T04:40:10;38.90;;;19.20;;
76136;SDS011;68622;53.128;17.966;2024-03-06T04:42:37;39.50;;;19.10;;
76136;SDS011;68622;53.128;17.966;2024-03-06T04:45:04;41.30;;;19.60;;
76136;SDS011;68622;53.128;17.966;2024-03-06T04:47:37;42.80;;;20.10;;
76136;SDS011;68622;53.128;17.966;2024-03-06T04:50:07;41.00;;;18.40;;
76136;SDS011;68622;53.128;17.966;2024-03-06T04:52:36;44.10;;;20.20;;
76136;SDS011;68622;53.128;17.966;2024-03-06T04:55:04;46.00;;;19.80;;
76136;SDS011;68622;53.128;17.966;2024-03-06T04:57:32;43.20;;;18.80;;
76136;SDS011;68622;53.128;17.966;2024-03-06T04:59:59;42.90;;;20.30;;
76136;SDS011;68622;53.128;17.966;2024-03-06T05:02:26;40.50;;;18.90;;
76136;SDS011;68622;53.128;17.966;2024-03-06T05:04:53;46.90;;;21.20;;
76136;SDS011;68622;53.128;17.966;2024-03-06T05:07:20;41.90;;;18.30;;
76136;SDS011;68622;53.128;17.966;2024-03-06T05:09:46;37.50;;;18.00;;
76136;SDS011;68622;53.128;17.966;2024-03-06T05:12:13;43.90;;;20.20;;
76136;SDS011;68622;53.128;17.966;2024-03-06T05:14:40;38.70;;;19.50;;
76136;SDS011;68622;53.128;17.966;2024-03-06T05:17:06;47.10;;;19.20;;
76136;SDS011;68622;53.128;17.966;2024-03-06T05:19:33;44.60;;;20.00;;
76136;SDS011;68622;53.128;17.966;2024-03-06T05:21:59;53.30;;;23.20;;
76136;SDS011;68622;53.128;17.966;2024-03-06T05:24:26;47.00;;;20.80;;
76136;SDS011;68622;53.128;17.966;2024-03-06T05:26:53;49.00;;;21.60;;
76136;SDS011;68622;53.128;17.966;2024-03-06T05:29:19;53.10;;;22.70;;
76136;SDS011;68622;53.128;17.966;2024-03-06T05:31:46;43.60;;;20.40;;
76136;SDS011;68622;53.128;17.966;2024-03-06T05:34:13;54.00;;;21.00;;
76136;SDS011;68622;53.128;17.966;2024-03-06T05:36:39;52.30;;;22.80;;
76136;SDS011;68622;53.128;17.966;2024-03-06T05:39:07;52.60;;;23.20;;
76136;SDS011;68622;53.128;17.966;2024-03-06T05:41:39;47.50;;;21.00;;
76136;SDS011;68622;53.128;17.966;2024-03-06T05:44:07;51.70;;;22.40;;
76136;SDS011;68622;53.128;17.966;2024-03-06T05:46:34;55.50;;;23.00;;
76136;SDS011;68622;53.128;17.966;2024-03-06T05:49:01;60.10;;;22.10;;
76136;SDS011;68622;53.128;17.966;2024-03-06T05:51:29;53.20;;;21.80;;
76136;SDS011;68622;53.128;17.966;2024-03-06T05:53:56;63.90;;;24.60;;
76136;SDS011;68622;53.128;17.966;2024-03-06T05:56:23;51.40;;;22.90;;
76136;SDS011;68622;53.128;17.966;2024-03-06T05:58:50;59.10;;;24.30;;
76136;SDS011;68622;53.128;17.966;2024-03-06T06:01:17;58.70;;;23.30;;
76136;SDS011;68622;53.128;17.966;2024-03-06T06:03:48;54.40;;;23.10;;
76136;SDS011;68622;53.128;17.966;2024-03-06T06:06:15;54.10;;;22.50;;
76136;SDS011;68622;53.128;17.966;2024-03-06T06:08:42;54.00;;;23.20;;
76136;SDS011;68622;53.128;17.966;2024-03-06T06:11:10;65.70;;;26.30;;
76136;SDS011;68622;53.128;17.966;2024-03-06T06:13:38;60.80;;;25.80;;
76136;SDS011;68622;53.128;17.966;2024-03-06T06:16:08;60.60;;;27.30;;
76136;SDS011;68622;53.128;17.966;2024-03-06T06:18:35;52.60;;;23.60;;
76136;SDS011;68622;53.128;17.966;2024-03-06T06:21:02;58.80;;;25.80;;
76136;SDS011;68622;53.128;17.966;2024-03-06T06:23:36;62.30;;;25.50;;
76136;SDS011;68622;53.128;17.966;2024-03-06T06:26:03;63.50;;;29.20;;
76136;SDS011;68622;53.128;17.966;2024-03-06T06:28:29;62.30;;;25.00;;
76136;SDS011;68622;53.128;17.966;2024-03-06T06:30:56;65.80;;;29.50;;
76136;SDS011;68622;53.128;17.966;2024-03-06T06:33:23;66.10;;;27.20;;
76136;SDS011;68622;53.128;17.966;2024-03-06T06:35:49;67.00;;;28.90;;
76136;SDS011;68622;53.128;17.966;2024-03-06T06:38:18;63.40;;;26.30;;
76136;SDS011;68622;53.128;17.966;2024-03-06T06:40:44;63.70;;;27.50;;
76136;SDS011;68622;53.128;17.966;2024-03-06T06:43:11;61.00;;;27.60;;
76136;SDS011;68622;53.128;17.966;2024-03-06T06:45:39;63.60;;;28.30;;
76136;SDS011;68622;53.128;17.966;2024-03-06T06:48:07;68.20;;;29.90;;
76136;SDS011;68622;53.128;17.966;2024-03-06T06:50:35;62.70;;;28.20;;
76136;SDS011;68622;53.128;17.966;2024-03-06T06:53:02;60.60;;;27.20;;
76136;SDS011;68622;53.128;17.966;2024-03-06T06:55:29;60.30;;;26.30;;
76136;SDS011;68622;53.128;17.966;2024-03-06T06:57:57;65.00;;;27.90;;
76136;SDS011;68622;53.128;17.966;2024-03-06T07:00:24;60.00;;;27.50;;
76136;SDS011;68622;53.128;17.966;2024-03-06T07:02:51;57.90;;;24.90;;
76136;SDS011;68622;53.128;17.966;2024-03-06T07:05:18;57.70;;;26.20;;
76136;SDS011;68622;53.128;17.966;2024-03-06T07:07:45;57.90;;;26.30;;
76136;SDS011;68622;53.128;17.966;2024-03-06T07:10:12;57.80;;;26.30;;
76136;SDS011;68622;53.128;17.966;2024-03-06T07:12:40;61.00;;;27.80;;
76136;SDS011;68622;53.128;17.966;2024-03-06T07:15:07;57.40;;;26.50;;
76136;SDS011;68622;53.128;17.966;2024-03-06T07:17:34;56.90;;;26.60;;
76136;SDS011;68622;53.128;17.966;2024-03-06T07:20:00;55.70;;;27.20;;
76136;SDS011;68622;53.128;17.966;2024-03-06T07:22:27;71.00;;;34.40;;
76136;SDS011;68622;53.128;17.966;2024-03-06T07:24:54;63.60;;;31.30;;
76136;SDS011;68622;53.128;17.966;2024-03-06T07:27:21;60.60;;;29.80;;
76136;SDS011;68622;53.128;17.966;2024-03-06T07:29:48;56.90;;;28.10;;
76136;SDS011;68622;53.128;17.966;2024-03-06T07:32:15;54.80;;;26.10;;
76136;SDS011;68622;53.128;17.966;2024-03-06T07:34:42;58.00;;;26.40;;
76136;SDS011;68622;53.128;17.966;2024-03-06T07:37:08;47.20;;;24.70;;
76136;SDS011;68622;53.128;17.966;2024-03-06T07:39:35;50.90;;;22.80;;
76136;SDS011;68622;53.128;17.966;2024-03-06T07:42:02;49.20;;;23.90;;
76136;SDS011;68622;53.128;17.966;2024-03-06T07:44:29;50.40;;;24.50;;
76136;SDS011;68622;53.128;17.966;2024-03-06T07:46:55;53.90;;;24.50;;
76136;SDS011;68622;53.128;17.966;2024-03-06T07:49:22;52.80;;;24.60;;
76136;SDS011;68622;53.128;17.966;2024-03-06T07:51:52;40.20;;;21.70;;
76136;SDS011;68622;53.128;17.966;2024-03-06T07:54:20;46.00;;;22.90;;
76136;SDS011;68622;53.128;17.966;2024-03-06T07:56:47;41.60;;;21.80;;
76136;SDS011;68622;53.128;17.966;2024-03-06T07:59:13;42.30;;;20.50;;
76136;SDS011;68622;53.128;17.966;2024-03-06T08:01:40;38.90;;;20.40;;
76136;SDS011;68622;53.128;17.966;2024-03-06T08:04:07;43.30;;;21.40;;
76136;SDS011;68622;53.128;17.966;2024-03-06T08:06:33;39.90;;;18.30;;
76136;SDS011;68622;53.128;17.966;2024-03-06T08:08:59;37.80;;;19.30;;
76136;SDS011;68622;53.128;17.966;2024-03-06T08:11:24;39.70;;;19.10;;
76136;SDS011;68622;53.128;17.966;2024-03-06T08:13:56;38.10;;;19.50;;
76136;SDS011;68622;53.128;17.966;2024-03-06T08:16:23;34.10;;;19.50;;
76136;SDS011;68622;53.128;17.966;2024-03-06T08:18:49;41.10;;;19.40;;
76136;SDS011;68622;53.128;17.966;2024-03-06T08:21:14;36.40;;;19.00;;
76136;SDS011;68622;53.128;17.966;2024-03-06T08:23:40;39.70;;;19.40;;
76136;SDS011;68622;53.128;17.966;2024-03-06T08:26:12;32.60;;;18.60;;
76136;SDS011;68622;53.128;17.966;2024-03-06T08:28:38;37.60;;;19.00;;
76136;SDS011;68622;53.128;17.966;2024-03-06T08:31:04;39.40;;;19.00;;
76136;SDS011;68622;53.128;17.966;2024-03-06T08:33:30;45.10;;;20.70;;
76136;SDS011;68622;53.128;17.966;2024-03-06T08:35:55;47.50;;;20.50;;
76136;SDS011;68622;53.128;17.966;2024-03-06T08:38:23;38.40;;;20.00;;
76136;SDS011;68622;53.128;17.966;2024-03-06T08:40:49;43.50;;;19.40;;
76136;SDS011;68622;53.128;17.966;2024-03-06T08:43:16;40.70;;;18.90;;
76136;SDS011;68622;53.128;17.966;2024-03-06T08:45:42;36.10;;;18.30;;
76136;SDS011;68622;53.128;17.966;2024-03-06T08:48:08;36.50;;;19.30;;
76136;SDS011;68622;53.128;17.966;2024-03-06T08:50:34;36.30;;;17.70;;
76136;SDS011;68622;53.128;17.966;2024-03-06T08:53:00;33.30;;;17.60;;
76136;SDS011;68622;53.128;17.966;2024-03-06T08:55:27;29.50;;;15.70;;
76136;SDS011;68622;53.128;17.966;2024-03-06T08:57:56;28.30;;;15.00;;
76136;SDS011;68622;53.128;17.966;2024-03-06T09:00:22;35.90;;;16.20;;
76136;SDS011;68622;53.128;17.966;2024-03-06T09:02:47;32.80;;;15.50;;
76136;SDS011;68622;53.128;17.966;2024-03-06T09:05:13;35.30;;;15.60;;
76136;SDS011;68622;53.128;17.966;2024-03-06T09:07:39;35.70;;;16.80;;
76136;SDS011;68622;53.128;17.966;2024-03-06T09:10:08;32.40;;;15.70;;
76136;SDS011;68622;53.128;17.966;2024-03-06T09:12:35;32.00;;;14.60;;
76136;SDS011;68622;53.128;17.966;2024-03-06T09:15:02;28.80;;;13.40;;
76136;SDS011;68622;53.128;17.966;2024-03-06T09:17:29;36.50;;;15.10;;
76136;SDS011;68622;53.128;17.966;2024-03-06T09:19:55;50.60;;;22.60;;
76136;SDS011;68622;53.128;17.966;2024-03-06T09:22:21;28.90;;;15.70;;
76136;SDS011;68622;53.128;17.966;2024-03-06T09:24:47;32.70;;;16.10;;
76136;SDS011;68622;53.128;17.966;2024-03-06T09:27:16;28.30;;;13.80;;
76136;SDS011;68622;53.128;17.966;2024-03-06T09:29:42;27.30;;;14.20;;
76136;SDS011;68622;53.128;17.966;2024-03-06T09:32:08;23.10;;;11.90;;
76136;SDS011;68622;53.128;17.966;2024-03-06T09:34:34;26.60;;;14.60;;
76136;SDS011;68622;53.128;17.966;2024-03-06T09:37:00;25.70;;;13.00;;
76136;SDS011;68622;53.128;17.966;2024-03-06T09:39:26;26.90;;;13.80;;
76136;SDS011;68622;53.128;17.966;2024-03-06T09:41:52;28.90;;;13.60;;
76136;SDS011;68622;53.128;17.966;2024-03-06T09:44:20;24.50;;;13.10;;
76136;SDS011;68622;53.128;17.966;2024-03-06T09:46:47;26.70;;;13.50;;
76136;SDS011;68622;53.128;17.966;2024-03-06T09:49:15;26.90;;;12.90;;
76136;SDS011;68622;53.128;17.966;2024-03-06T09:51:45;27.50;;;13.20;;
76136;SDS011;68622;53.128;17.966;2024-03-06T09:54:13;28.10;;;12.80;;
76136;SDS011;68622;53.128;17.966;2024-03-06T09:56:42;27.60;;;14.50;;
76136;SDS011;68622;53.128;17.966;2024-03-06T09:59:09;28.30;;;14.00;;
76136;SDS011;68622;53.128;17.966;2024-03-06T10:01:38;27.50;;;14.30;;
76136;SDS011;68622;53.128;17.966;2024-03-06T10:04:22;29.10;;;15.00;;
76136;SDS011;68622;53.128;17.966;2024-03-06T10:06:56;35.50;;;16.30;;
76136;SDS011;68622;53.128;17.966;2024-03-06T10:09:23;34.60;;;16.40;;
76136;SDS011;68622;53.128;17.966;2024-03-06T10:11:50;34.20;;;15.90;;
76136;SDS011;68622;53.128;17.966;2024-03-06T10:14:19;29.50;;;14.90;;
76136;SDS011;68622;53.128;17.966;2024-03-06T10:16:58;28.40;;;14.90;;
76136;SDS011;68622;53.128;17.966;2024-03-06T10:19:26;30.50;;;15.30;;
76136;SDS011;68622;53.128;17.966;2024-03-06T10:21:54;29.60;;;16.00;;
76136;SDS011;68622;53.128;17.966;2024-03-06T10:24:23;27.20;;;14.10;;
76136;SDS011;68622;53.128;17.966;2024-03-06T10:26:54;31.30;;;14.90;;
76136;SDS011;68622;53.128;17.966;2024-03-06T10:29:22;28.60;;;14.70;;
76136;SDS011;68622;53.128;17.966;2024-03-06T10:31:56;32.80;;;15.40;;
76136;SDS011;68622;53.128;17.966;2024-03-06T10:34:29;31.00;;;14.90;;
76136;SDS011;68622;53.128;17.966;2024-03-06T10:36:55;35.70;;;17.20;;
76136;SDS011;68622;53.128;17.966;2024-03-06T10:39:34;37.60;;;16.00;;
76136;SDS011;68622;53.128;17.966;2024-03-06T10:42:04;32.90;;;16.30;;
76136;SDS011;68622;53.128;17.966;2024-03-06T10:44:32;31.80;;;14.60;;
76136;SDS011;68622;53.128;17.966;2024-03-06T10:47:06;34.80;;;15.60;;
76136;SDS011;68622;53.128;17.966;2024-03-06T10:49:35;31.30;;;15.20;;
76136;SDS011;68622;53.128;17.966;2024-03-06T10:52:02;29.20;;;14.90;;
76136;SDS011;68622;53.128;17.966;2024-03-06T10:54:33;27.70;;;15.00;;
76136;SDS011;68622;53.128;17.966;2024-03-06T10:57:04;30.80;;;15.30;;
76136;SDS011;68622;53.128;17.966;2024-03-06T10:59:31;25.70;;;14.10;;
76136;SDS011;68622;53.128;17.966;2024-03-06T11:01:57;29.00;;;15.70;;
76136;SDS011;68622;53.128;17.966;2024-03-06T11:04:30;30.30;;;16.90;;
76136;SDS011;68622;53.128;17.966;2024-03-06T11:06:59;29.00;;;16.00;;
76136;SDS011;68622;53.128;17.966;2024-03-06T11:09:27;33.50;;;15.30;;
76136;SDS011;68622;53.128;17.966;2024-03-06T11:12:04;34.00;;;15.80;;
76136;SDS011;68622;53.128;17.966;2024-03-06T11:14:36;28.70;;;14.30;;
76136;SDS011;68622;53.128;17.966;2024-03-06T11:17:04;29.80;;;15.80;;
76136;SDS011;68622;53.128;17.966;2024-03-06T11:28:19;33.70;;;16.00;;
76136;SDS011;68622;53.128;17.966;2024-03-06T11:30:46;29.00;;;14.60;;
76136;SDS011;68622;53.128;17.966;2024-03-06T11:33:14;28.10;;;15.40;;
76136;SDS011;68622;53.128;17.966;2024-03-06T11:38:51;31.40;;;15.40;;
76136;SDS011;68622;53.128;17.966;2024-03-06T11:41:21;28.10;;;14.80;;
76136;SDS011;68622;53.128;17.966;2024-03-06T11:43:48;28.70;;;14.10;;
76136;SDS011;68622;53.128;17.966;2024-03-06T11:49:19;32.40;;;15.00;;
76136;SDS011;68622;53.128;17.966;2024-03-06T11:51:47;26.80;;;13.60;;
76136;SDS011;68622;53.128;17.966;2024-03-06T11:54:14;29.40;;;16.20;;
76136;SDS011;68622;53.128;17.966;2024-03-06T11:56:40;29.10;;;14.50;;
76136;SDS011;68622;53.128;17.966;2024-03-06T11:59:06;32.00;;;14.90;;
76136;SDS011;68622;53.128;17.966;2024-03-06T12:01:33;26.90;;;15.30;;
76136;SDS011;68622;53.128;17.966;2024-03-06T12:04:00;29.20;;;14.20;;
76136;SDS011;68622;53.128;17.966;2024-03-06T12:06:27;32.50;;;14.00;;
76136;SDS011;68622;53.128;17.966;2024-03-06T12:08:53;27.30;;;14.30;;
76136;SDS011;68622;53.128;17.966;2024-03-06T12:11:19;30.20;;;14.70;;
76136;SDS011;68622;53.128;17.966;2024-03-06T12:13:47;24.60;;;14.20;;
76136;SDS011;68622;53.128;17.966;2024-03-06T12:16:13;29.10;;;13.90;;
76136;SDS011;68622;53.128;17.966;2024-03-06T12:18:40;28.20;;;14.30;;
76136;SDS011;68622;53.128;17.966;2024-03-06T12:21:05;24.70;;;13.50;;
76136;SDS011;68622;53.128;17.966;2024-03-06T12:23:31;26.50;;;14.90;;
76136;SDS011;68622;53.128;17.966;2024-03-06T12:26:04;26.20;;;14.30;;
76136;SDS011;68622;53.128;17.966;2024-03-06T12:28:35;24.00;;;13.30;;
76136;SDS011;68622;53.128;17.966;2024-03-06T12:31:05;24.20;;;12.10;;
76136;SDS011;68622;53.128;17.966;2024-03-06T12:33:33;29.80;;;13.50;;
76136;SDS011;68622;53.128;17.966;2024-03-06T12:36:03;26.50;;;13.30;;
76136;SDS011;68622;53.128;17.966;2024-03-06T12:38:30;24.20;;;14.00;;
76136;SDS011;68622;53.128;17.966;2024-03-06T12:40:56;23.30;;;12.60;;
76136;SDS011;68622;53.128;17.966;2024-03-06T12:43:24;26.90;;;12.90;;
76136;SDS011;68622;53.128;17.966;2024-03-06T12:45:50;27.50;;;14.10;;
76136;SDS011;68622;53.128;17.966;2024-03-06T12:48:23;33.40;;;14.70;;
76136;SDS011;68622;53.128;17.966;2024-03-06T12:50:51;29.80;;;14.00;;
76136;SDS011;68622;53.128;17.966;2024-03-06T12:53:18;34.80;;;13.10;;
76136;SDS011;68622;53.128;17.966;2024-03-06T12:55:44;31.00;;;13.60;;
76136;SDS011;68622;53.128;17.966;2024-03-06T12:58:11;26.30;;;13.20;;
76136;SDS011;68622;53.128;17.966;2024-03-06T13:00:38;23.60;;;12.30;;
76136;SDS011;68622;53.128;17.966;2024-03-06T13:03:04;23.90;;;12.10;;
76136;SDS011;68622;53.128;17.966;2024-03-06T13:05:31;23.90;;;12.10;;
76136;SDS011;68622;53.128;17.966;2024-03-06T13:07:57;25.90;;;13.10;;
76136;SDS011;68622;53.128;17.966;2024-03-06T13:10:25;23.80;;;12.70;;
76136;SDS011;68622;53.128;17.966;2024-03-06T13:12:50;23.00;;;11.50;;
76136;SDS011;68622;53.128;17.966;2024-03-06T13:15:17;24.50;;;12.30;;
76136;SDS011;68622;53.128;17.966;2024-03-06T13:17:42;20.80;;;11.00;;
76136;SDS011;68622;53.128;17.966;2024-03-06T13:20:08;20.20;;;11.60;;
76136;SDS011;68622;53.128;17.966;2024-03-06T13:22:34;23.50;;;11.70;;
76136;SDS011;68622;53.128;17.966;2024-03-06T13:25:01;19.90;;;10.90;;
76136;SDS011;68622;53.128;17.966;2024-03-06T13:27:26;19.80;;;10.50;;
76136;SDS011;68622;53.128;17.966;2024-03-06T13:29:52;22.20;;;10.50;;
76136;SDS011;68622;53.128;17.966;2024-03-06T13:32:18;25.10;;;11.50;;
76136;SDS011;68622;53.128;17.966;2024-03-06T13:34:44;22.50;;;10.60;;
76136;SDS011;68622;53.128;17.966;2024-03-06T13:37:10;23.10;;;11.00;;
76136;SDS011;68622;53.128;17.966;2024-03-06T13:39:36;22.90;;;10.80;;
76136;SDS011;68622;53.128;17.966;2024-03-06T13:42:02;19.50;;;10.70;;
76136;SDS011;68622;53.128;17.966;2024-03-06T13:44:28;22.50;;;10.30;;
76136;SDS011;68622;53.128;17.966;2024-03-06T13:46:53;25.00;;;10.70;;
76136;SDS011;68622;53.128;17.966;2024-03-06T13:52:07;24.20;;;10.40;;
76136;SDS011;68622;53.128;17.966;2024-03-06T13:54:37;22.50;;;10.90;;
76136;SDS011;68622;53.128;17.966;2024-03-06T13:57:03;21.10;;;10.10;;
76136;SDS011;68622;53.128;17.966;2024-03-06T13:59:32;22.20;;;9.80;;
76136;SDS011;68622;53.128;17.966;2024-03-06T14:01:59;18.50;;;10.00;;
76136;SDS011;68622;53.128;17.966;2024-03-06T14:04:25;35.60;;;11.40;;
76136;SDS011;68622;53.128;17.966;2024-03-06T14:06:52;17.90;;;9.00;;
76136;SDS011;68622;53.128;17.966;2024-03-06T14:09:18;20.50;;;9.50;;
76136;SDS011;68622;53.128;17.966;2024-03-06T14:11:44;19.50;;;9.00;;
76136;SDS011;68622;53.128;17.966;2024-03-06T14:14:10;18.00;;;8.90;;
76136;SDS011;68622;53.128;17.966;2024-03-06T14:16:37;20.30;;;9.30;;
76136;SDS011;68622;53.128;17.966;2024-03-06T14:19:05;16.30;;;8.20;;
76136;SDS011;68622;53.128;17.966;2024-03-06T14:21:31;20.30;;;10.10;;
76136;SDS011;68622;53.128;17.966;2024-03-06T14:23:58;21.30;;;10.40;;
76136;SDS011;68622;53.128;17.966;2024-03-06T14:26:25;17.60;;;8.30;;
76136;SDS011;68622;53.128;17.966;2024-03-06T14:28:53;16.20;;;8.30;;